• Join FlightAware (Why Join?)
  • Login
  • US Flag 
08:20AM EDT


 

Airport Tracker/Info


-or-


 

Live Flight TrackerFlight Track Log ✈ N13553 ✈ 08-May-2013 ✈ KORD - KCMH

Flight Track Log - Related Links

Times and Time Zones

All times are in EDT time to prevent confusion due to time zone crossing. See the N13553 flight status page for this flight to view local times or setup timezone preferences in your user account.

Time Position Orientation Groundspeed Altitude Reporting Facility
EDT Latitude Longitude Course Direction KTS MPH feet Rate Location/Type
12:51PM 42.0167 -87.9500 95° East 179 206 2,400  Level Chicago TRACON
12:52PM 42.0500 -87.9167 37° Northeast 221 254 3,700 1,680 Climbing Chicago TRACON
12:53PM 42.0667 -87.8167 77° East 262 302 5,900 2,100 Climbing Chicago TRACON
12:54PM 41.9528 -87.3941 98° East  Level FlightAware Approximate
12:55PM 41.9430 -87.2681 95° East  Level FlightAware Approximate
12:55PM 42.0669 -87.6292 90° East 275 316 9,900  Level Chicago Center
12:56PM 41.9340 -87.1420 95° East  Level FlightAware Approximate
12:56PM 42.0672 -87.5183 90° East 294 338 11,800  Level Chicago Center
12:57PM 42.0394 -87.4114 109° East 300 345 13,700 1,740 Climbing Chicago Center
12:58PM 42.0086 -87.2992 110° East 314 361 15,500 1,620 Climbing Chicago Center
12:59PM 41.9778 -87.1858 110° East 321 369 17,100 1,620 Climbing Chicago Center
01:00PM 41.9450 -87.0433 107° East 332 382 18,900 1,560 Climbing Chicago Center
01:01PM 41.9469 -86.9153 89° East 340 391 20,400 1,140 Climbing Chicago Center
01:02PM 41.9103 -86.7922 112° Southeast 363 418 21,300 720 Climbing Chicago Center
01:03PM 41.8544 -86.6544 119° Southeast 386 444 21,900 660 Climbing Chicago Center
01:04PM 41.7878 -86.5278 125° Southeast 412 474 22,700 840 Climbing Chicago Center
01:05PM 41.7294 -86.3950 120° Southeast 417 480 23,700 960 Climbing Chicago Center
01:06PM 41.6819 -86.2542 114° Southeast 415 478 24,700 600 Climbing Chicago Center
01:07PM 41.6317 -86.1125 115° Southeast 423 487 25,000 120 Climbing Chicago Center
01:08PM 41.5803 -85.9642 115° Southeast 438 504 25,000  Level Chicago Center
01:09PM 41.4992 -85.7953 123° Southeast 455 524 25,000  Level Chicago Center
01:10PM 41.4183 -85.6661 130° Southeast 461 531 25,000  Level Chicago Center
01:11PM 41.3369 -85.5342 129° Southeast 468 539 25,000 -420 Level Chicago Center
01:12PM 41.2561 -85.4064 130° Southeast 460 529 24,200 -1,020 Descending Chicago Center
01:13PM 41.1606 -85.2567 130° Southeast 450 518 23,000 -600 Descending Chicago Center
01:14PM 41.0806 -85.1308 130° Southeast 449 517 23,000  Level Chicago Center
01:15PM 40.9994 -85.0039 130° Southeast 452 520 23,000  Level Chicago Center
01:16PM 40.9167 -84.8753 130° Southeast 457 526 23,000  Level Chicago Center
01:17PM 40.8425 -84.7378 125° Southeast 466 536 23,000  Level Chicago Center
01:18PM 40.7933 -84.5842 113° Southeast 461 531 23,000  Level Chicago Center
01:19PM 40.7369 -84.4036 112° Southeast 451 519 23,000  Level Chicago Center
01:20PM 40.7056 -84.3006 112° Southeast 443 510 23,000 -960 Level Indianapolis Center
01:21PM 40.6583 -84.1503 112° Southeast 441 507 21,300 -1,800 Descending Indianapolis Center
01:22PM 40.6131 -84.0075 113° Southeast 423 487 19,400 -2,100 Descending Indianapolis Center
01:23PM 40.5703 -83.8722 113° Southeast 400 460 17,000 -2,760 Descending Indianapolis Center
01:24PM 40.5175 -83.7100 113° Southeast 392 451 13,600 -2,700 Descending Indianapolis Center
01:25PM 40.4850 -83.6125 114° Southeast 355 409 11,900 -1,620 Descending Indianapolis Center
01:26PM 40.4292 -83.5153 127° Southeast 311 358 10,700 -1,560 Descending Indianapolis Center
01:27PM 40.3578 -83.4325 139° Southeast 298 343 8,600 -1,740 Descending Indianapolis Center
01:28PM 40.2986 -83.3600 137° Southeast 291 335 6,900 -1,440 Descending Indianapolis Center
01:29PM 40.2494 -83.3044 139° Southeast 261 300 5,900 -1,500 Descending Indianapolis Center
01:30PM 40.1953 -83.2433 139° Southeast 256 295 4,200 -900 Descending Indianapolis Center
01:31PM 40.1411 -83.1797 138° Southeast 261 300 4,100 -180 Descending Indianapolis Center
01:31PM 40.1350 -83.1717 135° Southeast 258 297 4,000  Descending Indianapolis Center
01:32PM 40.0867 -83.1186 140° Southeast 260 299 4,100  Climbing Indianapolis Center
01:32PM 40.0789 -83.1067 130° Southeast 262 302 4,000 -420 Descending Indianapolis Center